createdAt,value
2018-05-12T00:02:04.614Z,14.63
2018-05-12T00:04:37.066Z,12.07
2018-05-12T00:07:09.637Z,12.77
2018-05-12T00:09:43.060Z,13.37
2018-05-12T00:12:16.253Z,14.00
2018-05-12T00:14:48.912Z,12.23
2018-05-12T00:17:22.297Z,15.00
2018-05-12T00:19:55.463Z,14.30
2018-05-12T00:22:28.296Z,13.70
2018-05-12T00:25:00.926Z,13.73
2018-05-12T00:27:33.329Z,14.40
2018-05-12T00:30:05.850Z,14.10
2018-05-12T00:32:39.178Z,13.83
2018-05-12T00:35:11.659Z,13.40
2018-05-12T00:37:44.172Z,13.57
2018-05-12T00:40:16.760Z,12.67
2018-05-12T00:42:50.873Z,13.67
2018-05-12T00:45:23.616Z,14.70
2018-05-12T00:47:56.956Z,14.23
2018-05-12T00:50:30.153Z,12.93
2018-05-12T00:53:02.929Z,13.37
2018-05-12T00:55:36.686Z,18.53
2018-05-12T00:58:10.269Z,18.43
2018-05-12T01:00:43.720Z,16.17
2018-05-12T01:03:16.422Z,17.40
2018-05-12T01:05:48.878Z,16.90
2018-05-12T01:08:22.234Z,16.33
2018-05-12T01:10:54.885Z,16.13
2018-05-12T01:13:27.317Z,17.33
2018-05-12T01:16:00.677Z,15.30
2018-05-12T01:18:33.460Z,12.90
2018-05-12T01:21:06.679Z,16.83
2018-05-12T01:23:39.294Z,15.97
2018-05-12T01:26:11.879Z,13.23
2018-05-12T01:28:45.169Z,16.27
2018-05-12T01:31:18.310Z,16.63
2018-05-12T01:33:51.278Z,14.40
2018-05-12T01:36:23.874Z,14.43
2018-05-12T01:38:58.080Z,14.67
2018-05-12T01:41:31.530Z,14.93
2018-05-12T01:44:04.242Z,15.93
2018-05-12T01:46:37.500Z,14.53
2018-05-12T01:49:10.101Z,13.73
2018-05-12T01:51:42.720Z,13.60
2018-05-12T01:54:15.294Z,16.43
2018-05-12T01:56:47.947Z,14.87
2018-05-12T01:59:20.359Z,16.70
2018-05-12T02:01:52.923Z,15.37
2018-05-12T02:04:26.363Z,14.50
2018-05-12T02:06:59.177Z,14.60
2018-05-12T02:09:31.747Z,16.20
2018-05-12T02:12:04.333Z,14.70
2018-05-12T02:14:37.450Z,14.97
2018-05-12T02:17:10.987Z,15.43
2018-05-12T02:19:43.510Z,16.97
2018-05-12T02:22:15.972Z,14.77
2018-05-12T02:24:48.345Z,14.37
2018-05-12T02:27:20.832Z,12.63
2018-05-12T02:29:54.081Z,16.80
2018-05-12T02:32:26.809Z,16.57
2018-05-12T02:35:00.085Z,13.63
2018-05-12T02:37:32.560Z,15.43
2018-05-12T02:40:05.027Z,14.10
2018-05-12T02:42:37.583Z,16.67
2018-05-12T02:45:09.962Z,14.87
2018-05-12T02:47:43.173Z,13.80
2018-05-12T02:50:16.577Z,12.63
2018-05-12T02:52:49.555Z,13.47
2018-05-12T02:55:22.041Z,15.40
2018-05-12T02:57:54.536Z,13.77
2018-05-12T03:00:28.833Z,16.00
2018-05-12T03:03:01.367Z,13.73
2018-05-12T03:05:33.829Z,14.00
2018-05-12T03:08:06.407Z,13.33
2018-05-12T03:10:39.612Z,13.03
2018-05-12T03:13:12.250Z,13.67
2018-05-12T03:15:44.781Z,15.80
2018-05-12T03:18:17.631Z,13.53
2018-05-12T03:20:51.090Z,13.90
2018-05-12T03:23:25.279Z,13.93
2018-05-12T03:25:57.901Z,12.00
2018-05-12T03:28:30.525Z,14.33
2018-05-12T03:31:04.560Z,14.00
2018-05-12T03:33:38.063Z,14.30
2018-05-12T03:36:10.824Z,13.10
2018-05-12T03:38:43.173Z,12.47
2018-05-12T03:41:15.666Z,14.17
2018-05-12T03:43:48.189Z,13.43
2018-05-12T03:46:20.598Z,12.00
2018-05-12T03:48:53.125Z,11.10
2018-05-12T03:51:25.491Z,11.63
2018-05-12T03:53:58.881Z,11.03
2018-05-12T03:56:31.550Z,11.03
2018-05-12T03:59:04.106Z,11.07
2018-05-12T04:01:36.528Z,12.67
2018-05-12T04:07:33.781Z,10.57
2018-05-12T04:13:16.239Z,10.27
2018-05-12T04:15:48.777Z,11.10
2018-05-12T04:18:21.131Z,11.00
2018-05-12T04:20:53.603Z,10.40
2018-05-12T04:23:26.955Z,10.27
2018-05-12T04:25:59.507Z,11.50
2018-05-12T04:28:32.802Z,9.83
2018-05-12T04:31:05.264Z,8.90
2018-05-12T04:33:38.486Z,8.33
2018-05-12T04:36:11.170Z,8.97
2018-05-12T04:38:44.622Z,7.83
2018-05-12T04:41:17.965Z,9.30
2018-05-12T04:43:50.818Z,8.60
2018-05-12T04:46:24.202Z,8.33
2018-05-12T04:48:56.723Z,6.33
2018-05-12T04:51:29.178Z,6.97
2018-05-12T04:54:02.475Z,6.57
2018-05-12T04:56:35.908Z,6.47
2018-05-12T04:59:08.609Z,4.83
2018-05-12T05:01:41.148Z,4.93
2018-05-12T05:04:15.333Z,6.57
2018-05-12T05:06:48.015Z,5.50
2018-05-12T05:09:21.108Z,5.23
2018-05-12T05:11:54.604Z,4.43
2018-05-12T05:14:27.898Z,4.80
2018-05-12T05:17:00.512Z,5.77
2018-05-12T05:19:32.934Z,4.90
2018-05-12T05:22:05.456Z,4.50
2018-05-12T05:24:38.926Z,5.43
2018-05-12T05:27:11.411Z,4.97
2018-05-12T05:29:45.558Z,4.70
2018-05-12T05:32:18.895Z,4.50
2018-05-12T05:34:51.561Z,4.30
2018-05-12T05:37:23.979Z,3.90
2018-05-12T05:39:56.353Z,4.30
2018-05-12T05:42:28.778Z,4.83
2018-05-12T05:45:02.211Z,3.73
2018-05-12T05:47:35.619Z,4.30
2018-05-12T05:50:08.349Z,4.27
2018-05-12T05:52:41.580Z,4.60
2018-05-12T05:55:14.991Z,4.23
2018-05-12T05:57:47.682Z,3.80
2018-05-12T06:00:20.930Z,4.17
2018-05-12T06:02:53.456Z,4.03
2018-05-12T06:05:25.837Z,4.37
2018-05-12T06:07:58.394Z,4.60
2018-05-12T06:10:30.875Z,4.17
2018-05-12T06:13:05.011Z,4.27
2018-05-12T06:15:37.633Z,3.87
2018-05-12T06:18:10.200Z,3.80
2018-05-12T06:20:43.538Z,4.13
2018-05-12T06:23:16.048Z,3.87
2018-05-12T06:25:48.430Z,4.03
2018-05-12T06:28:20.953Z,3.70
2018-05-12T06:30:53.416Z,3.23
2018-05-12T06:33:26.912Z,3.60
2018-05-12T06:36:00.133Z,3.73
2018-05-12T06:38:32.976Z,3.37
2018-05-12T06:41:05.359Z,3.80
2018-05-12T06:43:38.794Z,3.60
2018-05-12T06:46:11.240Z,4.27
2018-05-12T06:48:43.825Z,3.80
2018-05-12T06:51:17.186Z,3.33
2018-05-12T06:53:49.839Z,3.57
2018-05-12T06:56:23.117Z,3.00
2018-05-12T06:58:56.508Z,2.77
2018-05-12T07:01:29.866Z,3.57
2018-05-12T07:04:02.410Z,3.30
2018-05-12T07:06:36.501Z,3.73
2018-05-12T07:09:09.263Z,3.60
2018-05-12T07:11:42.462Z,3.23
2018-05-12T07:14:16.690Z,3.50
2018-05-12T07:16:49.401Z,3.43
2018-05-12T07:19:22.880Z,3.47
2018-05-12T07:21:55.373Z,4.30
2018-05-12T07:24:27.811Z,3.63
2018-05-12T07:27:01.167Z,3.27
2018-05-12T07:29:35.305Z,3.90
2018-05-12T07:32:07.976Z,3.50
2018-05-12T07:34:47.593Z,4.23
2018-05-12T07:37:19.965Z,4.97
2018-05-12T07:39:53.132Z,4.57
2018-05-12T07:42:25.581Z,4.83
2018-05-12T07:44:58.906Z,4.60
2018-05-12T07:47:31.260Z,5.10
2018-05-12T07:50:04.415Z,5.40
2018-05-12T07:52:37.812Z,5.33
2018-05-12T07:55:18.257Z,5.53
2018-05-12T07:57:51.047Z,4.93
2018-05-12T08:00:25.339Z,5.40
2018-05-12T08:02:57.830Z,5.47
2018-05-12T08:05:30.355Z,6.47
2018-05-12T08:08:02.771Z,6.47
2018-05-12T08:10:35.267Z,5.73
2018-05-12T08:13:09.346Z,7.13
2018-05-12T08:15:42.130Z,6.80
2018-05-12T08:18:14.725Z,9.23
2018-05-12T08:20:47.227Z,8.57
2018-05-12T08:23:20.659Z,9.10
2018-05-12T08:25:54.198Z,8.97
2018-05-12T08:28:27.514Z,10.20
2018-05-12T08:31:00.096Z,10.77
2018-05-12T08:33:33.305Z,10.17
2018-05-12T08:36:05.804Z,11.50
2018-05-12T08:38:39.870Z,12.20
2018-05-12T08:41:13.407Z,9.63
2018-05-12T08:43:46.750Z,8.90
2018-05-12T08:46:19.364Z,9.63
2018-05-12T08:48:51.877Z,10.07
2018-05-12T08:51:25.098Z,8.50
2018-05-12T08:53:57.922Z,12.07
2018-05-12T08:56:30.492Z,11.47
2018-05-12T08:59:03.026Z,9.07
2018-05-12T09:01:35.379Z,9.17
2018-05-12T09:04:07.954Z,8.33
2018-05-12T09:06:40.568Z,11.00
2018-05-12T09:09:13.036Z,9.27
2018-05-12T09:11:45.582Z,6.20
2018-05-12T09:14:18.104Z,10.40
2018-05-12T09:16:51.327Z,11.87
2018-05-12T09:19:24.612Z,9.70
2018-05-12T09:21:57.313Z,9.50
2018-05-12T09:24:29.786Z,11.20
2018-05-12T09:27:02.415Z,10.47
2018-05-12T09:29:35.723Z,11.57
2018-05-12T09:32:08.356Z,10.60
2018-05-12T09:34:41.703Z,10.43
2018-05-12T09:37:14.129Z,11.77
2018-05-12T09:39:47.570Z,11.17
2018-05-12T09:42:20.190Z,9.93
2018-05-12T09:44:54.234Z,9.77
2018-05-12T09:47:26.723Z,9.10
2018-05-12T09:50:00.073Z,9.20
2018-05-12T09:52:34.183Z,6.03
2018-05-12T09:55:07.643Z,8.70
2018-05-12T09:57:41.167Z,7.80
2018-05-12T10:00:14.713Z,10.47
2018-05-12T10:02:47.855Z,12.00
2018-05-12T10:05:20.565Z,9.60
2018-05-12T10:07:53.093Z,8.67
2018-05-12T10:10:26.371Z,8.10
2018-05-12T10:12:59.694Z,9.20
2018-05-12T10:15:33.189Z,10.37
2018-05-12T10:18:05.637Z,8.40
2018-05-12T10:20:38.292Z,8.73
2018-05-12T10:23:11.649Z,7.23
2018-05-12T10:25:44.501Z,11.17
2018-05-12T10:28:17.902Z,9.30
2018-05-12T10:30:52.077Z,7.70
2018-05-12T10:33:24.828Z,8.77
2018-05-12T10:35:58.199Z,10.00
2018-05-12T10:38:30.642Z,9.73
2018-05-12T10:41:03.155Z,9.50
2018-05-12T10:43:36.430Z,10.80
2018-05-12T10:46:08.815Z,10.97
2018-05-12T10:48:42.306Z,7.80
2018-05-12T10:51:16.336Z,6.00
2018-05-12T10:53:48.922Z,9.40
2018-05-12T10:56:21.384Z,8.60
2018-05-12T10:58:53.816Z,7.43
2018-05-12T11:01:26.452Z,9.43
2018-05-12T11:03:59.769Z,10.30
2018-05-12T11:06:33.109Z,5.43
2018-05-12T11:09:06.390Z,6.83
2018-05-12T11:11:38.998Z,5.03
2018-05-12T11:14:11.387Z,8.50
2018-05-12T11:16:44.705Z,5.63
2018-05-12T11:19:17.352Z,9.20
2018-05-12T11:21:49.894Z,8.73
2018-05-12T11:24:22.350Z,9.10
2018-05-12T11:26:54.764Z,13.60
2018-05-12T11:29:28.114Z,13.00
2018-05-12T11:32:00.801Z,8.10
2018-05-12T11:34:34.275Z,8.40
2018-05-12T11:37:06.679Z,9.87
2018-05-12T11:39:40.054Z,9.80
2018-05-12T11:42:12.628Z,11.00
2018-05-12T11:44:46.100Z,9.30
2018-05-12T11:47:19.323Z,8.37
2018-05-12T11:49:52.017Z,12.50
2018-05-12T11:52:24.365Z,12.33
2018-05-12T11:54:56.834Z,9.93
2018-05-12T11:57:29.335Z,10.37
2018-05-12T12:02:55.964Z,11.30
2018-05-12T12:05:29.179Z,5.90
2018-05-12T12:08:02.636Z,10.27
2018-05-12T12:10:35.179Z,6.07
2018-05-12T12:13:08.484Z,11.47
2018-05-12T12:15:41.179Z,10.80
2018-05-12T12:18:13.724Z,11.10
2018-05-12T12:20:47.273Z,10.20
2018-05-12T12:23:21.311Z,8.00
2018-05-12T12:25:54.545Z,10.20
2018-05-12T12:28:26.981Z,6.37
2018-05-12T12:31:00.413Z,9.37
2018-05-12T12:33:33.921Z,10.40
2018-05-12T12:36:07.290Z,5.50
2018-05-12T12:38:40.055Z,6.03
2018-05-12T12:41:12.529Z,5.10
2018-05-12T12:43:46.579Z,5.47
2018-05-12T12:46:19.332Z,6.20
2018-05-12T12:48:52.481Z,8.13
2018-05-12T12:51:26.154Z,8.33
2018-05-12T12:53:59.116Z,5.00
2018-05-12T12:56:31.664Z,6.40
2018-05-12T12:59:05.282Z,6.33
2018-05-12T13:01:38.043Z,7.87
2018-05-12T13:04:10.622Z,6.07
2018-05-12T13:06:43.148Z,6.43
2018-05-12T13:09:15.773Z,6.37
2018-05-12T13:11:48.231Z,8.17
2018-05-12T13:14:20.843Z,5.90
2018-05-12T13:16:54.575Z,5.37
2018-05-12T13:19:28.331Z,7.90
2018-05-12T13:22:01.331Z,6.97
2018-05-12T13:24:34.168Z,5.27
2018-05-12T13:27:06.658Z,5.70
2018-05-12T13:29:40.244Z,7.43
2018-05-12T13:32:14.175Z,7.07
2018-05-12T13:34:47.550Z,4.83
2018-05-12T13:37:20.387Z,7.03
2018-05-12T13:39:53.691Z,5.20
2018-05-12T13:42:26.117Z,5.50
2018-05-12T13:44:58.691Z,5.83
2018-05-12T13:47:31.389Z,6.60
2018-05-12T13:50:04.034Z,5.87
2018-05-12T13:52:36.461Z,5.30
2018-05-12T13:55:09.837Z,4.57
2018-05-12T13:57:42.647Z,6.10
2018-05-12T14:00:15.293Z,5.20
2018-05-12T14:02:47.870Z,6.50
2018-05-12T14:05:21.355Z,6.20
2018-05-12T14:07:54.151Z,6.40
2018-05-12T14:10:26.541Z,5.07
2018-05-12T14:12:59.878Z,5.70
2018-05-12T14:15:32.638Z,4.73
2018-05-12T14:18:05.292Z,6.90
2018-05-12T14:20:37.834Z,7.10
2018-05-12T14:23:10.170Z,5.50
2018-05-12T14:25:42.838Z,5.60
2018-05-12T14:28:15.447Z,5.47
2018-05-12T14:30:47.829Z,4.67
2018-05-12T14:33:21.661Z,5.40
2018-05-12T14:35:54.796Z,5.17
2018-05-12T14:38:27.440Z,4.43
2018-05-12T14:40:59.948Z,4.63
2018-05-12T14:43:32.321Z,5.63
2018-05-12T14:46:05.634Z,5.43
2018-05-12T14:48:38.343Z,5.20
2018-05-12T14:51:10.792Z,5.53
2018-05-12T14:53:43.522Z,4.20
2018-05-12T14:56:15.928Z,5.00
2018-05-12T14:58:48.466Z,5.20
2018-05-12T15:01:20.972Z,4.30
2018-05-12T15:03:53.472Z,5.20
2018-05-12T15:06:26.029Z,4.60
2018-05-12T15:08:58.533Z,4.20
2018-05-12T15:11:31.143Z,4.43
2018-05-12T15:14:03.879Z,6.10
2018-05-12T15:16:36.543Z,5.07
2018-05-12T15:19:09.186Z,4.23
2018-05-12T15:21:41.875Z,4.40
2018-05-12T15:24:14.573Z,4.27
2018-05-12T15:26:47.282Z,3.83
2018-05-12T15:29:20.633Z,3.10
2018-05-12T15:31:53.397Z,4.00
2018-05-12T15:34:26.009Z,3.50
2018-05-12T15:36:58.582Z,4.10
2018-05-12T15:39:31.068Z,4.20
2018-05-12T15:42:03.722Z,3.70
2018-05-12T15:44:36.445Z,3.60
2018-05-12T15:47:09.747Z,4.00
2018-05-12T15:49:42.583Z,3.67
2018-05-12T15:52:15.045Z,3.97
2018-05-12T15:54:47.557Z,3.37
2018-05-12T15:57:20.297Z,4.27
2018-05-12T15:59:53.361Z,3.87
2018-05-12T16:02:26.357Z,3.63
2018-05-12T16:04:58.895Z,3.70
2018-05-12T16:07:31.387Z,3.20
2018-05-12T16:10:04.391Z,3.27
2018-05-12T16:12:36.888Z,3.60
2018-05-12T16:15:09.618Z,4.90
2018-05-12T16:17:42.133Z,4.57
2018-05-12T16:20:15.015Z,4.03
2018-05-12T16:22:47.824Z,3.70
2018-05-12T16:25:20.335Z,4.17
2018-05-12T16:27:53.773Z,4.00
2018-05-12T16:30:26.352Z,4.30
2018-05-12T16:32:59.596Z,4.00
2018-05-12T16:35:32.313Z,3.77
2018-05-12T16:38:05.906Z,3.33
2018-05-12T16:40:39.532Z,4.00
2018-05-12T16:43:12.206Z,3.20
2018-05-12T16:45:45.587Z,4.27
2018-05-12T16:48:18.821Z,3.40
2018-05-12T16:50:51.553Z,4.03
2018-05-12T16:53:24.035Z,3.93
2018-05-12T16:55:56.441Z,3.97
2018-05-12T16:58:30.385Z,3.87
2018-05-12T17:01:03.016Z,3.50
2018-05-12T17:03:35.699Z,3.67
2018-05-12T17:06:08.133Z,3.93
2018-05-12T17:08:40.866Z,5.77
2018-05-12T17:11:13.394Z,3.93
2018-05-12T17:13:46.030Z,3.60
2018-05-12T17:16:18.529Z,3.37
2018-05-12T17:18:51.234Z,3.40
2018-05-12T17:21:23.768Z,3.77
2018-05-12T17:23:56.361Z,3.67
2018-05-12T17:26:28.950Z,3.90
2018-05-12T17:29:01.691Z,3.70
2018-05-12T17:31:34.531Z,3.47
2018-05-12T17:34:07.005Z,3.60
2018-05-12T17:36:39.715Z,2.90
2018-05-12T17:39:12.452Z,3.53
2018-05-12T17:41:45.457Z,3.10
2018-05-12T17:44:18.090Z,3.40
2018-05-12T17:46:51.005Z,3.60
2018-05-12T17:49:25.071Z,3.47
2018-05-12T17:51:57.965Z,3.50
2018-05-12T17:54:30.579Z,3.27
2018-05-12T17:57:03.174Z,3.10
2018-05-12T17:59:35.854Z,3.50
2018-05-12T18:02:08.549Z,3.47
2018-05-12T18:04:41.667Z,4.53
2018-05-12T18:07:14.295Z,3.73
2018-05-12T18:09:46.767Z,5.50
2018-05-12T18:12:20.115Z,4.13
2018-05-12T18:14:52.835Z,3.83
2018-05-12T18:17:25.408Z,3.73
2018-05-12T18:19:57.823Z,3.90
2018-05-12T18:22:30.355Z,4.20
2018-05-12T18:25:02.934Z,3.13
2018-05-12T18:27:35.452Z,3.57
2018-05-12T18:30:09.580Z,4.13
2018-05-12T18:32:42.374Z,3.17
2018-05-12T18:35:15.676Z,3.80
2018-05-12T18:37:48.677Z,4.00
2018-05-12T18:40:22.071Z,4.27
2018-05-12T18:42:54.835Z,4.30
2018-05-12T18:45:27.222Z,4.80
2018-05-12T18:47:59.826Z,5.10
2018-05-12T18:50:32.644Z,5.10
2018-05-12T18:53:05.450Z,4.50
2018-05-12T18:55:37.980Z,4.00
2018-05-12T18:58:10.679Z,4.77
2018-05-12T19:00:43.981Z,4.47
2018-05-12T19:03:16.754Z,5.13
2018-05-12T19:05:49.547Z,3.80
2018-05-12T19:08:22.360Z,4.40
2018-05-12T19:10:55.719Z,4.67
2018-05-12T19:13:29.420Z,4.47
2018-05-12T19:16:02.151Z,4.53
2018-05-12T19:18:35.423Z,4.60
2018-05-12T19:21:08.757Z,3.90
2018-05-12T19:23:42.076Z,4.60
2018-05-12T19:26:14.623Z,4.80
2018-05-12T19:28:47.893Z,4.07
2018-05-12T19:31:20.583Z,3.70
2018-05-12T19:33:54.873Z,4.60
2018-05-12T19:36:27.468Z,5.50
2018-05-12T19:39:00.203Z,3.80
2018-05-12T19:41:33.549Z,4.20
2018-05-12T19:44:07.142Z,3.93
2018-05-12T19:46:39.938Z,4.03
2018-05-12T19:49:13.930Z,4.80
2018-05-12T19:51:46.737Z,5.03
2018-05-12T19:54:20.113Z,4.87
2018-05-12T19:56:52.795Z,4.50
2018-05-12T19:59:26.061Z,3.77
2018-05-12T20:01:59.127Z,5.30
2018-05-12T20:04:33.226Z,5.87
2018-05-12T20:07:06.470Z,4.90
2018-05-12T20:09:39.890Z,5.57
2018-05-12T20:12:13.591Z,4.07
2018-05-12T20:14:46.637Z,3.93
2018-05-12T20:17:19.191Z,4.53
2018-05-12T20:19:52.018Z,4.20
2018-05-12T20:22:25.420Z,5.10
2018-05-12T20:24:59.051Z,4.67
2018-05-12T20:27:31.733Z,4.90
2018-05-12T20:30:05.033Z,4.67
2018-05-12T20:32:38.115Z,4.33
2018-05-12T20:35:11.394Z,4.17
2018-05-12T20:37:44.107Z,4.43
2018-05-12T20:40:17.358Z,5.00
2018-05-12T20:42:50.001Z,5.17
2018-05-12T20:45:22.621Z,4.90
2018-05-12T20:47:55.209Z,5.03
2018-05-12T20:50:27.613Z,5.40
2018-05-12T20:53:00.873Z,6.17
2018-05-12T20:55:33.600Z,5.40
2018-05-12T20:58:06.044Z,4.20
2018-05-12T21:00:39.380Z,4.43
2018-05-12T21:03:12.938Z,4.00
2018-05-12T21:05:46.439Z,4.03
2018-05-12T21:08:19.094Z,4.53
2018-05-12T21:10:51.834Z,4.83
2018-05-12T21:13:25.084Z,4.63
2018-05-12T21:15:58.205Z,4.43
2018-05-12T21:18:30.692Z,4.60
2018-05-12T21:21:03.442Z,4.83
2018-05-12T21:23:36.101Z,5.47
2018-05-12T21:26:09.031Z,4.23
2018-05-12T21:28:41.521Z,5.13
2018-05-12T21:31:14.169Z,5.23
2018-05-12T21:33:46.597Z,4.30
2018-05-12T21:36:19.303Z,4.67
2018-05-12T21:38:52.164Z,4.13
2018-05-12T21:41:25.245Z,4.50
2018-05-12T21:43:58.502Z,5.20
2018-05-12T21:46:31.159Z,4.40
2018-05-12T21:49:03.639Z,3.93
2018-05-12T21:51:36.763Z,5.23
2018-05-12T21:54:10.245Z,4.73
2018-05-12T21:56:43.021Z,5.37
2018-05-12T21:59:15.509Z,4.93
2018-05-12T22:01:48.107Z,4.30
2018-05-12T22:04:20.701Z,4.80
2018-05-12T22:06:53.386Z,6.07
2018-05-12T22:09:25.751Z,5.10
2018-05-12T22:11:58.417Z,5.63
2018-05-12T22:14:32.328Z,6.73
2018-05-12T22:17:04.917Z,6.77
2018-05-12T22:19:37.481Z,6.20
2018-05-12T22:22:10.070Z,5.77
2018-05-12T22:24:42.643Z,5.20
2018-05-12T22:27:15.178Z,5.80
2018-05-12T22:29:47.814Z,5.90
2018-05-12T22:32:20.446Z,6.10
2018-05-12T22:34:53.643Z,6.33
2018-05-12T22:37:27.370Z,5.40
2018-05-12T22:40:00.174Z,6.90
2018-05-12T22:42:33.784Z,5.20
2018-05-12T22:45:06.557Z,5.20
2018-05-12T22:47:40.032Z,6.20
2018-05-12T22:50:13.051Z,5.60
2018-05-12T22:52:46.149Z,6.00
2018-05-12T22:55:18.848Z,6.20
2018-05-12T22:57:52.173Z,5.07
2018-05-12T23:00:27.540Z,5.67
2018-05-12T23:03:01.055Z,5.13
2018-05-12T23:05:33.882Z,4.30
2018-05-12T23:08:06.583Z,5.13
2018-05-12T23:10:39.136Z,5.10
2018-05-12T23:13:12.347Z,4.23
2018-05-12T23:15:45.159Z,5.00
2018-05-12T23:18:17.590Z,4.30
2018-05-12T23:20:50.154Z,5.27
2018-05-12T23:23:23.519Z,5.47
2018-05-12T23:25:56.395Z,4.53
2018-05-12T23:28:29.793Z,5.10
2018-05-12T23:31:02.636Z,5.33
2018-05-12T23:33:35.284Z,4.90
2018-05-12T23:36:07.871Z,4.30
2018-05-12T23:38:40.467Z,5.40
2018-05-12T23:41:14.007Z,5.57
2018-05-12T23:43:47.737Z,5.00
2018-05-12T23:46:21.551Z,5.13
2018-05-12T23:48:54.249Z,6.00
2018-05-12T23:51:27.248Z,5.90
2018-05-12T23:54:00.599Z,5.80
2018-05-12T23:56:33.591Z,5.90
2018-05-12T23:59:06.898Z,6.10
